createdAt,value
2023-01-30T00:00:55.332Z,-2.61
2023-01-30T00:03:22.831Z,-2.61
2023-01-30T00:05:49.680Z,-2.57
2023-01-30T00:08:16.871Z,-2.53
2023-01-30T00:10:44.114Z,-2.61
2023-01-30T00:13:11.498Z,-2.53
2023-01-30T00:15:38.091Z,-2.57
2023-01-30T00:18:04.799Z,-2.63
2023-01-30T00:20:31.285Z,-2.63
2023-01-30T00:23:01.034Z,-2.62
2023-01-30T00:25:28.653Z,-2.60
2023-01-30T00:27:56.551Z,-2.66
2023-01-30T00:30:23.115Z,-2.60
2023-01-30T00:32:54.576Z,-2.54
2023-01-30T00:35:21.264Z,-2.56
2023-01-30T00:37:47.733Z,-2.52
2023-01-30T00:40:14.321Z,-2.59
2023-01-30T00:42:59.173Z,-2.59
2023-01-30T00:46:00.934Z,-2.61
2023-01-30T00:48:28.007Z,-2.67
2023-01-30T00:50:54.624Z,-2.62
2023-01-30T00:53:21.171Z,-2.54
2023-01-30T00:55:47.851Z,-2.63
2023-01-30T00:58:14.347Z,-2.63
2023-01-30T01:00:40.800Z,-2.67
2023-01-30T01:03:07.404Z,-2.69
2023-01-30T01:05:33.918Z,-2.74
2023-01-30T01:08:00.538Z,-2.73
2023-01-30T01:10:27.169Z,-2.67
2023-01-30T01:12:53.630Z,-2.58
2023-01-30T01:15:23.622Z,-2.68
2023-01-30T01:17:50.361Z,-2.69
2023-01-30T01:20:18.161Z,-2.66
2023-01-30T01:22:44.995Z,-2.82
2023-01-30T01:25:12.242Z,-2.75
2023-01-30T01:27:38.813Z,-2.67
2023-01-30T01:30:06.852Z,-2.81
2023-01-30T01:32:33.394Z,-2.72
2023-01-30T01:35:00.160Z,-2.76
2023-01-30T01:37:26.671Z,-2.75
2023-01-30T01:40:11.548Z,-2.73
2023-01-30T01:42:38.868Z,-2.69
2023-01-30T01:45:15.272Z,-2.67
2023-01-30T01:47:45.345Z,-2.71
2023-01-30T01:50:22.537Z,-2.67
2023-01-30T01:52:52.207Z,-2.70
2023-01-30T01:55:20.917Z,-2.67
2023-01-30T01:57:52.817Z,-2.62
2023-01-30T02:00:21.245Z,-2.60
2023-01-30T02:02:58.039Z,-2.63
2023-01-30T02:09:10.094Z,-2.60
2023-01-30T02:11:39.480Z,-2.65
2023-01-30T02:14:07.008Z,-2.70
2023-01-30T02:16:33.530Z,-2.72
2023-01-30T02:19:00.015Z,-2.73
2023-01-30T02:22:03.813Z,-2.82
2023-01-30T02:24:36.175Z,-2.85
2023-01-30T02:27:28.482Z,-2.75
2023-01-30T02:29:54.883Z,-2.76
2023-01-30T02:32:45.970Z,-2.75
2023-01-30T02:35:28.461Z,-2.74
2023-01-30T02:38:19.482Z,-2.70
2023-01-30T02:40:48.885Z,-2.68
2023-01-30T02:43:21.591Z,-2.67
2023-01-30T02:45:56.609Z,-2.69
2023-01-30T02:48:29.526Z,-2.78
2023-01-30T02:51:01.227Z,-2.82
2023-01-30T02:53:33.603Z,-2.83
2023-01-30T02:56:01.117Z,-2.89
2023-01-30T02:58:33.338Z,-2.91
2023-01-30T03:01:35.651Z,-2.86
2023-01-30T03:04:18.449Z,-2.77
2023-01-30T03:06:47.837Z,-2.83
2023-01-30T03:09:51.699Z,-2.82
2023-01-30T03:12:23.268Z,-2.88
2023-01-30T03:15:08.473Z,-2.76
2023-01-30T03:17:36.528Z,-2.75
2023-01-30T03:20:03.566Z,-2.77
2023-01-30T03:22:30.049Z,-2.72
2023-01-30T03:24:57.020Z,-2.78
2023-01-30T03:27:23.915Z,-2.75
2023-01-30T03:29:50.599Z,-2.67
2023-01-30T03:32:17.117Z,-2.68
2023-01-30T03:34:43.591Z,-2.64
2023-01-30T03:37:10.130Z,-2.70
2023-01-30T03:39:36.969Z,-2.67
2023-01-30T03:42:03.735Z,-2.55
2023-01-30T03:44:30.203Z,-2.48
2023-01-30T03:46:56.714Z,-2.60
2023-01-30T03:49:23.310Z,-2.56
2023-01-30T03:51:49.786Z,-2.56
2023-01-30T03:54:16.293Z,-2.54
2023-01-30T03:56:42.755Z,-2.58
2023-01-30T03:59:09.338Z,-2.58
2023-01-30T04:01:35.873Z,-2.55
2023-01-30T04:04:02.580Z,-2.51
2023-01-30T04:06:29.006Z,-2.44
2023-01-30T04:08:55.474Z,-2.50
2023-01-30T04:11:21.934Z,-2.46
2023-01-30T04:13:48.360Z,-2.37
2023-01-30T04:16:19.759Z,-2.40
2023-01-30T04:18:46.231Z,-2.43
2023-01-30T04:21:13.170Z,-2.36
2023-01-30T04:23:40.509Z,-2.34
2023-01-30T04:26:07.817Z,-2.32
2023-01-30T04:28:34.550Z,-2.29
2023-01-30T04:31:01.417Z,-2.24
2023-01-30T04:33:27.983Z,-2.24
2023-01-30T04:35:55.113Z,-2.19
2023-01-30T04:38:22.758Z,-2.18
2023-01-30T04:40:50.521Z,-2.07
2023-01-30T04:43:17.615Z,-2.08
2023-01-30T04:45:45.326Z,-2.06
2023-01-30T04:48:12.449Z,-2.00
2023-01-30T04:50:42.441Z,-2.00
2023-01-30T04:53:09.538Z,-2.00
2023-01-30T04:55:36.443Z,-1.97
2023-01-30T04:58:03.463Z,-1.90
2023-01-30T05:00:30.157Z,-1.95
2023-01-30T05:02:56.851Z,-1.94
2023-01-30T05:05:24.393Z,-2.04
2023-01-30T05:07:50.972Z,-2.05
2023-01-30T05:10:18.429Z,-2.06
2023-01-30T05:12:45.538Z,-2.00
2023-01-30T05:15:13.594Z,-2.05
2023-01-30T05:17:41.970Z,-2.20
2023-01-30T05:20:10.712Z,-2.16
2023-01-30T05:22:37.212Z,-2.16
2023-01-30T05:25:04.157Z,-2.22
2023-01-30T05:27:30.626Z,-2.19
2023-01-30T05:29:57.091Z,-2.26
2023-01-30T05:32:23.562Z,-2.29
2023-01-30T05:34:50.200Z,-2.36
2023-01-30T05:37:16.691Z,-2.37
2023-01-30T05:39:43.419Z,-2.29
2023-01-30T05:42:09.898Z,-2.41
2023-01-30T05:44:36.379Z,-2.30
2023-01-30T05:47:02.983Z,-2.32
2023-01-30T05:49:29.398Z,-2.29
2023-01-30T05:51:56.065Z,-2.30
2023-01-30T05:54:22.484Z,-2.32
2023-01-30T05:56:51.679Z,-2.30
2023-01-30T05:59:20.946Z,-2.32
2023-01-30T06:01:47.529Z,-2.31
2023-01-30T06:04:14.248Z,-2.29
2023-01-30T06:06:40.756Z,-2.29
2023-01-30T06:09:09.083Z,-2.23
2023-01-30T06:11:35.510Z,-2.21
2023-01-30T06:14:01.997Z,-2.28
2023-01-30T06:16:28.614Z,-2.20
2023-01-30T06:18:55.153Z,-2.15
2023-01-30T06:21:21.691Z,-2.14
2023-01-30T06:23:48.242Z,-2.09
2023-01-30T06:26:14.753Z,-2.06
2023-01-30T06:28:41.371Z,-2.04
2023-01-30T06:31:08.652Z,-1.99
2023-01-30T06:33:35.347Z,-1.99
2023-01-30T06:36:01.912Z,-1.95
2023-01-30T06:38:28.556Z,-1.94
2023-01-30T06:40:54.995Z,-1.90
2023-01-30T06:43:21.732Z,-1.83
2023-01-30T06:45:48.228Z,-1.79
2023-01-30T06:48:15.066Z,-1.78
2023-01-30T06:50:41.841Z,-1.78
2023-01-30T06:53:08.624Z,-1.72
2023-01-30T06:55:36.059Z,-1.68
2023-01-30T06:58:05.342Z,-1.63
2023-01-30T07:00:32.110Z,-1.67
2023-01-30T07:02:58.714Z,-1.65
2023-01-30T07:05:25.727Z,-1.61
2023-01-30T07:07:52.290Z,-1.53
2023-01-30T07:10:18.912Z,-1.55
2023-01-30T07:12:46.436Z,-1.51
2023-01-30T07:15:13.326Z,-1.45
2023-01-30T07:17:43.419Z,-1.51
2023-01-30T07:20:11.649Z,-1.40
2023-01-30T07:22:38.475Z,-1.41
2023-01-30T07:25:05.772Z,-1.30
2023-01-30T07:27:32.490Z,-1.26
2023-01-30T07:29:59.002Z,-1.29
2023-01-30T07:32:25.704Z,-1.25
2023-01-30T07:34:52.242Z,-1.19
2023-01-30T07:37:18.691Z,-1.11
2023-01-30T07:39:45.165Z,-1.09
2023-01-30T07:42:11.598Z,-1.06
2023-01-30T07:44:38.202Z,-0.96
2023-01-30T07:47:04.713Z,-0.83
2023-01-30T07:49:31.252Z,-0.79
2023-01-30T07:51:57.728Z,-0.83
2023-01-30T07:54:24.199Z,-0.76
2023-01-30T07:56:50.678Z,-0.71
2023-01-30T07:59:17.164Z,-0.69
2023-01-30T08:01:43.692Z,-0.72
2023-01-30T08:04:10.155Z,-0.67
2023-01-30T08:06:39.282Z,-0.64
2023-01-30T08:09:06.739Z,-0.62
2023-01-30T08:11:34.131Z,-0.60
2023-01-30T08:14:00.704Z,-0.48
2023-01-30T08:16:27.373Z,-0.51
2023-01-30T08:18:53.883Z,-0.47
2023-01-30T08:21:20.358Z,-0.48
2023-01-30T08:23:46.793Z,-0.44
2023-01-30T08:26:13.447Z,-0.45
2023-01-30T08:28:40.768Z,-0.46
2023-01-30T08:31:12.524Z,-0.47
2023-01-30T08:33:39.179Z,-0.37
2023-01-30T08:36:06.105Z,-0.37
2023-01-30T08:38:32.676Z,-0.33
2023-01-30T08:41:01.072Z,-0.29
2023-01-30T08:43:31.289Z,-0.26
2023-01-30T08:45:57.823Z,-0.33
2023-01-30T08:48:24.664Z,-0.26
2023-01-30T08:50:53.482Z,-0.21
2023-01-30T08:53:20.573Z,-0.25
2023-01-30T08:55:51.014Z,-0.18
2023-01-30T08:58:17.620Z,-0.09
2023-01-30T09:00:45.853Z,-0.09
2023-01-30T09:03:14.743Z,-0.07
2023-01-30T09:05:41.587Z,-0.05
2023-01-30T09:08:08.111Z,0.09
2023-01-30T09:10:34.746Z,0.05
2023-01-30T09:13:01.566Z,0.11
2023-01-30T09:15:28.079Z,0.13
2023-01-30T09:17:54.700Z,0.05
2023-01-30T09:20:21.342Z,0.23
2023-01-30T09:22:47.982Z,0.24
2023-01-30T09:25:15.091Z,0.39
2023-01-30T09:27:44.520Z,0.37
2023-01-30T09:30:11.998Z,0.54
2023-01-30T09:32:38.515Z,0.53
2023-01-30T09:35:05.442Z,0.56
2023-01-30T09:37:31.908Z,0.55
2023-01-30T09:39:58.375Z,0.49
2023-01-30T09:42:24.779Z,0.66
2023-01-30T09:44:54.275Z,0.69
2023-01-30T09:47:23.387Z,0.78
2023-01-30T09:50:06.364Z,0.93
2023-01-30T09:52:45.092Z,1.00
2023-01-30T09:55:21.886Z,0.96
2023-01-30T09:57:49.447Z,1.08
2023-01-30T10:00:34.059Z,1.05
2023-01-30T10:03:12.789Z,1.03
2023-01-30T10:05:42.388Z,1.04
2023-01-30T10:08:21.009Z,0.85
2023-01-30T10:11:08.943Z,0.96
2023-01-30T10:13:46.016Z,0.94
2023-01-30T10:16:35.183Z,0.93
2023-01-30T10:19:35.948Z,1.38
2023-01-30T10:22:11.367Z,1.62
2023-01-30T10:24:59.493Z,1.86
2023-01-30T10:27:29.533Z,2.74
2023-01-30T10:30:00.011Z,3.07
2023-01-30T10:32:31.873Z,3.50
2023-01-30T10:35:05.319Z,3.73
2023-01-30T10:37:59.395Z,3.42
2023-01-30T10:40:35.835Z,3.10
2023-01-30T10:43:40.055Z,2.47
2023-01-30T10:46:50.149Z,2.22
2023-01-30T10:49:39.813Z,2.02
2023-01-30T10:52:34.369Z,2.11
2023-01-30T10:55:07.283Z,1.74
2023-01-30T10:58:05.577Z,1.71
2023-01-30T11:00:42.874Z,1.65
2023-01-30T11:03:30.904Z,1.63
2023-01-30T11:06:06.003Z,1.73
2023-01-30T11:08:35.754Z,1.63
2023-01-30T11:11:38.969Z,1.53
2023-01-30T11:14:08.091Z,1.34
2023-01-30T11:16:49.037Z,1.35
2023-01-30T11:19:21.613Z,1.49
2023-01-30T11:21:54.769Z,1.56
2023-01-30T11:24:24.396Z,1.73
2023-01-30T11:26:53.011Z,1.61
2023-01-30T11:29:33.549Z,1.50
2023-01-30T11:32:12.084Z,1.61
2023-01-30T11:34:41.520Z,1.62
2023-01-30T11:37:15.603Z,1.63
2023-01-30T11:39:52.148Z,1.71
2023-01-30T11:42:20.590Z,1.66
2023-01-30T11:47:29.275Z,1.77
2023-01-30T11:50:07.667Z,1.97
2023-01-30T11:52:44.064Z,1.98
2023-01-30T11:57:58.623Z,2.04
2023-01-30T12:00:38.347Z,2.03
2023-01-30T12:03:10.139Z,2.02
2023-01-30T12:08:31.135Z,2.67
2023-01-30T12:14:20.040Z,4.99
2023-01-30T12:17:11.809Z,5.77
2023-01-30T12:22:37.995Z,6.07
2023-01-30T12:25:14.049Z,5.39
2023-01-30T12:28:01.873Z,4.49
2023-01-30T12:30:42.171Z,3.38
2023-01-30T12:33:15.684Z,3.14
2023-01-30T12:38:48.076Z,2.55
2023-01-30T12:41:20.414Z,2.51
2023-01-30T12:44:18.629Z,2.41
2023-01-30T12:47:00.178Z,2.36
2023-01-30T12:55:54.323Z,3.29
2023-01-30T12:58:31.464Z,3.26
2023-01-30T13:01:16.151Z,2.81
2023-01-30T13:04:19.294Z,2.54
2023-01-30T13:15:53.179Z,2.24
2023-01-30T13:35:58.921Z,2.01
2023-01-30T13:44:40.849Z,2.00
2023-01-30T14:09:33.237Z,1.26
2023-01-30T14:12:03.884Z,1.09
2023-01-30T14:14:38.242Z,1.07
2023-01-30T14:17:16.584Z,0.90
2023-01-30T14:19:53.441Z,0.88
2023-01-30T14:22:28.252Z,0.81
2023-01-30T14:25:33.020Z,0.58
2023-01-30T14:27:59.569Z,0.53
2023-01-30T14:33:24.124Z,0.25
2023-01-30T14:35:54.162Z,0.31
2023-01-30T14:38:21.917Z,0.21
2023-01-30T14:40:58.699Z,0.10
2023-01-30T14:43:25.127Z,0.15
2023-01-30T14:45:51.607Z,0.13
2023-01-30T14:49:04.457Z,0.04
2023-01-30T14:51:44.247Z,0.10
2023-01-30T14:54:16.477Z,0.05
2023-01-30T14:57:02.595Z,0.09
2023-01-30T15:00:02.792Z,-0.01
2023-01-30T15:02:44.331Z,-0.01
2023-01-30T15:05:15.458Z,0.12
2023-01-30T15:08:25.421Z,0.04
2023-01-30T15:11:16.013Z,0.17
2023-01-30T15:14:02.123Z,0.24
2023-01-30T15:16:37.837Z,0.14
2023-01-30T15:19:15.189Z,0.20
2023-01-30T15:21:58.393Z,0.27
2023-01-30T15:27:31.727Z,0.30
2023-01-30T15:30:04.105Z,0.17
2023-01-30T15:32:32.459Z,0.19
2023-01-30T15:35:02.355Z,0.23
2023-01-30T15:37:47.907Z,0.23
2023-01-30T15:40:21.018Z,0.17
2023-01-30T15:45:40.500Z,0.24
2023-01-30T15:48:12.935Z,0.18
2023-01-30T15:50:39.709Z,0.22
2023-01-30T15:53:14.132Z,0.29
2023-01-30T15:55:42.917Z,0.25
2023-01-30T16:00:55.241Z,0.34
2023-01-30T16:03:25.378Z,0.34
2023-01-30T16:08:31.117Z,0.23
2023-01-30T16:10:57.972Z,0.21
2023-01-30T16:13:24.799Z,0.21
2023-01-30T16:16:00.407Z,0.23
2023-01-30T16:18:32.641Z,0.32
2023-01-30T16:21:04.245Z,0.27
2023-01-30T16:23:38.832Z,0.35
2023-01-30T16:26:09.812Z,0.34
2023-01-30T16:28:36.527Z,0.38
2023-01-30T16:31:09.427Z,0.34
2023-01-30T16:33:36.601Z,0.33
2023-01-30T16:36:26.672Z,0.38
2023-01-30T16:38:55.064Z,0.34
2023-01-30T16:41:41.117Z,0.20
2023-01-30T16:44:18.848Z,0.25
2023-01-30T16:46:56.227Z,0.23
2023-01-30T16:49:25.300Z,0.24
2023-01-30T16:52:02.183Z,0.34
2023-01-30T16:54:31.286Z,0.27
2023-01-30T16:56:59.702Z,0.23
2023-01-30T16:59:34.405Z,0.18
2023-01-30T17:02:04.291Z,0.16
2023-01-30T17:04:33.826Z,0.25
2023-01-30T17:07:04.162Z,0.20
2023-01-30T17:09:47.212Z,0.20
2023-01-30T17:12:25.794Z,0.19
2023-01-30T17:15:13.493Z,0.15
2023-01-30T17:17:43.343Z,0.16
2023-01-30T17:20:11.590Z,0.14
2023-01-30T17:22:40.367Z,0.16
2023-01-30T17:25:17.484Z,0.22
2023-01-30T17:27:44.332Z,0.12
2023-01-30T17:30:19.702Z,0.17
2023-01-30T17:32:46.381Z,0.16
2023-01-30T17:35:12.971Z,0.25
2023-01-30T17:37:39.585Z,0.27
2023-01-30T17:40:17.064Z,0.25
2023-01-30T17:42:43.824Z,0.35
2023-01-30T17:45:11.054Z,0.35
2023-01-30T17:47:37.691Z,0.36
2023-01-30T17:50:05.051Z,0.39
2023-01-30T17:52:31.586Z,0.42
2023-01-30T17:54:58.372Z,0.51
2023-01-30T17:57:25.184Z,0.46
2023-01-30T17:59:51.700Z,0.53
2023-01-30T18:02:18.277Z,0.52
2023-01-30T18:04:44.878Z,0.55
2023-01-30T18:07:14.423Z,0.66
2023-01-30T18:09:40.928Z,0.62
2023-01-30T18:12:07.486Z,0.60
2023-01-30T18:14:34.091Z,0.70
2023-01-30T18:17:01.570Z,0.69
2023-01-30T18:19:29.071Z,0.73
2023-01-30T18:21:56.805Z,0.75
2023-01-30T18:24:23.362Z,0.81
2023-01-30T18:26:50.078Z,0.78
2023-01-30T18:29:16.696Z,0.80
2023-01-30T18:31:43.456Z,0.90
2023-01-30T18:34:11.277Z,0.86
2023-01-30T18:36:38.856Z,0.83
2023-01-30T18:39:05.862Z,0.91
2023-01-30T18:41:32.707Z,0.88
2023-01-30T18:44:01.277Z,0.92
2023-01-30T18:46:28.846Z,0.93
2023-01-30T18:48:56.400Z,0.90
2023-01-30T18:51:26.029Z,0.90
2023-01-30T18:53:54.321Z,0.92
2023-01-30T18:56:24.415Z,0.93
2023-01-30T18:58:52.409Z,0.92
2023-01-30T19:01:21.826Z,1.00
2023-01-30T19:03:49.221Z,0.97
2023-01-30T19:06:40.678Z,1.00
2023-01-30T19:09:08.803Z,0.95
2023-01-30T19:11:55.505Z,0.96
2023-01-30T19:14:21.943Z,0.93
2023-01-30T19:16:48.716Z,0.96
2023-01-30T19:19:15.236Z,0.85
2023-01-30T19:21:41.727Z,0.87
2023-01-30T19:26:56.398Z,0.80
2023-01-30T19:29:22.919Z,0.76
2023-01-30T19:31:50.058Z,0.73
2023-01-30T19:37:05.857Z,0.64
2023-01-30T19:39:32.316Z,0.68
2023-01-30T19:44:33.999Z,0.71
2023-01-30T19:47:00.766Z,0.70
2023-01-30T19:49:27.285Z,0.76
2023-01-30T19:51:53.765Z,0.73
2023-01-30T19:54:20.191Z,0.74
2023-01-30T19:56:48.393Z,0.66
2023-01-30T19:59:16.796Z,0.62
2023-01-30T20:04:36.591Z,0.59
2023-01-30T20:12:47.343Z,0.49
2023-01-30T20:40:14.803Z,0.57
2023-01-30T20:53:29.362Z,0.36
2023-01-30T21:17:36.106Z,0.49
2023-01-30T21:43:34.742Z,0.32
2023-01-30T21:46:01.397Z,0.27
2023-01-30T22:06:28.679Z,-0.03
2023-01-30T22:17:28.765Z,-0.13
2023-01-30T22:19:55.715Z,-0.16
2023-01-30T22:43:02.945Z,-0.30
2023-01-30T22:54:33.102Z,-0.33
2023-01-30T22:59:55.697Z,-0.37
2023-01-30T23:04:57.376Z,-0.42
2023-01-30T23:13:07.372Z,-0.39
2023-01-30T23:35:51.280Z,-0.51
